createdAt,value
2022-08-12T00:02:43.625Z,5.20
2022-08-12T00:06:05.041Z,5.40
2022-08-12T00:09:26.787Z,4.88
2022-08-12T00:12:47.216Z,4.90
2022-08-12T00:22:58.743Z,4.82
2022-08-12T00:26:23.621Z,5.40
2022-08-12T00:29:47.959Z,5.10
2022-08-12T00:33:09.558Z,5.28
2022-08-12T00:36:35.006Z,5.65
2022-08-12T00:39:57.898Z,5.72
2022-08-12T00:43:00.059Z,5.10
2022-08-12T00:46:20.493Z,5.75
2022-08-12T00:52:25.763Z,5.60
2022-08-12T00:55:27.468Z,5.78
2022-08-12T00:58:32.504Z,5.78
2022-08-12T01:02:02.202Z,6.10
2022-08-12T01:05:29.828Z,5.80
2022-08-12T01:08:50.483Z,6.03
2022-08-12T01:11:54.247Z,5.95
2022-08-12T01:14:57.834Z,5.80
2022-08-12T01:17:59.576Z,6.05
2022-08-12T01:21:27.247Z,6.30
2022-08-12T01:24:43.820Z,6.35
2022-08-12T01:27:49.912Z,5.90
2022-08-12T01:30:52.594Z,5.90
2022-08-12T01:34:35.471Z,6.72
2022-08-12T01:37:30.755Z,6.88
2022-08-12T01:40:38.168Z,5.82
2022-08-12T01:43:42.289Z,6.45
2022-08-12T01:47:27.964Z,7.07
2022-08-12T01:51:00.568Z,6.88
2022-08-12T01:54:13.845Z,7.25
2022-08-12T01:57:58.328Z,6.65
2022-08-12T02:01:08.962Z,6.90
2022-08-12T02:04:53.405Z,6.90
2022-08-12T02:08:42.525Z,6.90
2022-08-12T02:12:43.905Z,6.93
2022-08-12T02:15:58.830Z,6.97
2022-08-12T02:19:34.797Z,6.95
2022-08-12T02:22:41.181Z,7.18
2022-08-12T02:25:47.447Z,7.32
2022-08-12T02:28:49.416Z,7.70
2022-08-12T02:31:52.940Z,6.65
2022-08-12T02:34:56.322Z,6.82
2022-08-12T02:38:02.239Z,6.93
2022-08-12T02:41:05.136Z,7.78
2022-08-12T02:44:09.989Z,7.30
2022-08-12T02:47:55.553Z,7.10
2022-08-12T02:50:44.607Z,7.25
2022-08-12T02:54:04.549Z,7.28
2022-08-12T02:57:07.891Z,7.40
2022-08-12T03:00:11.875Z,6.95
2022-08-12T03:03:15.154Z,7.65
2022-08-12T03:06:21.689Z,7.80
2022-08-12T03:09:26.712Z,7.63
2022-08-12T03:12:49.017Z,7.38
2022-08-12T03:15:56.047Z,7.95
2022-08-12T03:18:58.273Z,7.70
2022-08-12T03:22:12.993Z,8.23
2022-08-12T03:25:24.941Z,7.47
2022-08-12T03:28:48.217Z,8.52
2022-08-12T03:31:50.815Z,8.10
2022-08-12T03:34:57.180Z,7.95
2022-08-12T03:38:00.906Z,8.43
2022-08-12T03:41:24.760Z,7.90
2022-08-12T03:44:56.421Z,7.88
2022-08-12T03:48:32.046Z,7.63
2022-08-12T03:51:52.477Z,7.97
2022-08-12T03:55:14.014Z,8.38
2022-08-12T03:58:35.100Z,7.90
2022-08-12T04:01:40.921Z,8.13
2022-08-12T04:04:45.259Z,8.20
2022-08-12T04:07:58.047Z,8.07
2022-08-12T04:11:18.897Z,8.25
2022-08-12T04:14:20.697Z,8.52
2022-08-12T04:17:22.787Z,8.23
2022-08-12T04:20:24.518Z,8.82
2022-08-12T04:23:27.432Z,8.23
2022-08-12T04:26:29.621Z,8.00
2022-08-12T04:30:21.316Z,7.93
2022-08-12T04:32:54.154Z,8.27
2022-08-12T04:35:56.062Z,8.50
2022-08-12T04:38:59.817Z,8.02
2022-08-12T04:42:01.601Z,9.00
2022-08-12T04:45:03.814Z,8.40
2022-08-12T04:48:06.595Z,9.40
2022-08-12T04:51:08.687Z,8.52
2022-08-12T04:54:10.285Z,8.95
2022-08-12T04:57:12.084Z,8.75
2022-08-12T05:00:16.525Z,8.95
2022-08-12T05:03:18.257Z,8.27
2022-08-12T05:06:27.081Z,9.15
2022-08-12T05:09:58.992Z,8.90
2022-08-12T05:12:59.905Z,8.57
2022-08-12T05:16:04.827Z,8.70
2022-08-12T05:19:12.689Z,8.77
2022-08-12T05:22:14.640Z,8.95
2022-08-12T05:25:18.454Z,9.02
2022-08-12T05:28:20.124Z,8.77
2022-08-12T05:31:42.554Z,9.32
2022-08-12T05:34:44.246Z,9.40
2022-08-12T05:37:45.824Z,8.80
2022-08-12T05:40:48.458Z,9.52
2022-08-12T05:44:16.197Z,9.20
2022-08-12T05:47:18.115Z,8.57
2022-08-12T05:50:19.785Z,8.48
2022-08-12T05:53:21.388Z,9.15
2022-08-12T05:56:26.144Z,8.68
2022-08-12T05:59:27.761Z,7.70
2022-08-12T06:02:29.456Z,8.55
2022-08-12T06:05:54.484Z,7.90
2022-08-12T06:08:57.433Z,7.65
2022-08-12T06:12:06.050Z,7.07
2022-08-12T06:15:08.369Z,6.85
2022-08-12T06:18:16.093Z,6.38
2022-08-12T06:21:21.606Z,6.60
2022-08-12T06:24:28.325Z,5.90
2022-08-12T06:27:29.891Z,6.32
2022-08-12T06:30:37.989Z,6.38
2022-08-12T06:34:01.091Z,6.60
2022-08-12T06:37:07.240Z,6.00
2022-08-12T06:40:12.597Z,5.57
2022-08-12T06:43:14.494Z,5.20
2022-08-12T06:46:16.099Z,5.57
2022-08-12T06:49:17.830Z,5.28
2022-08-12T06:52:24.995Z,5.10
2022-08-12T06:55:26.798Z,5.32
2022-08-12T06:58:30.080Z,5.07
2022-08-12T07:01:32.054Z,5.10
2022-08-12T07:04:37.789Z,4.88
2022-08-12T07:07:39.845Z,4.72
2022-08-12T07:10:43.928Z,4.68
2022-08-12T07:14:11.707Z,4.78
2022-08-12T07:17:13.839Z,4.70
2022-08-12T07:20:49.842Z,4.85
2022-08-12T07:23:41.530Z,4.80
2022-08-12T07:26:44.654Z,4.85
2022-08-12T07:30:02.686Z,4.40
2022-08-12T07:33:08.910Z,4.63
2022-08-12T07:36:13.997Z,4.30
2022-08-12T07:39:15.704Z,4.25
2022-08-12T07:42:17.381Z,4.32
2022-08-12T07:45:24.476Z,4.15
2022-08-12T07:48:26.833Z,4.50
2022-08-12T07:51:29.328Z,4.40
2022-08-12T07:54:30.980Z,4.15
2022-08-12T07:57:33.013Z,4.68
2022-08-12T08:00:37.696Z,4.05
2022-08-12T08:04:00.163Z,3.67
2022-08-12T08:07:01.783Z,4.28
2022-08-12T08:10:06.782Z,4.05
2022-08-12T08:13:08.713Z,3.92
2022-08-12T08:16:10.310Z,3.90
2022-08-12T08:19:23.756Z,3.83
2022-08-12T08:22:40.636Z,3.80
2022-08-12T08:25:45.073Z,4.03
2022-08-12T08:28:46.719Z,3.35
2022-08-12T08:31:54.652Z,3.35
2022-08-12T08:34:56.203Z,3.35
2022-08-12T08:38:14.763Z,3.22
2022-08-12T08:42:16.579Z,3.55
2022-08-12T08:45:13.150Z,3.30
2022-08-12T08:48:16.552Z,4.13
2022-08-12T08:51:18.169Z,3.15
2022-08-12T08:54:19.790Z,2.75
2022-08-12T08:57:21.619Z,3.85
2022-08-12T09:00:23.514Z,2.90
2022-08-12T09:05:07.152Z,4.00
2022-08-12T09:06:56.350Z,3.25
2022-08-12T09:14:10.770Z,4.63
2022-08-12T09:16:50.929Z,3.63
2022-08-12T09:19:58.004Z,3.00
2022-08-12T09:23:01.281Z,3.22
2022-08-12T09:26:09.886Z,2.70
2022-08-12T09:29:16.543Z,3.25
2022-08-12T09:32:56.096Z,3.33
2022-08-12T09:35:44.298Z,5.22
2022-08-12T09:38:59.083Z,3.30
2022-08-12T09:42:38.776Z,5.72
2022-08-12T09:46:14.105Z,3.45
2022-08-12T09:49:13.502Z,2.60
2022-08-12T09:52:19.076Z,2.80
2022-08-12T09:56:06.301Z,2.75
2022-08-12T09:59:00.455Z,2.60
2022-08-12T10:02:45.959Z,2.75
2022-08-12T10:06:26.461Z,3.30
2022-08-12T10:08:52.378Z,3.10
2022-08-12T10:12:14.664Z,3.22
2022-08-12T10:16:02.504Z,5.20
2022-08-12T10:19:06.457Z,7.18
2022-08-12T10:22:39.215Z,3.00
2022-08-12T10:26:34.914Z,3.30
2022-08-12T10:30:37.984Z,3.20
2022-08-12T10:33:00.923Z,3.20
2022-08-12T10:36:05.079Z,6.03
2022-08-12T10:40:05.609Z,2.97
2022-08-12T10:43:00.524Z,2.83
2022-08-12T10:46:02.457Z,2.85
2022-08-12T10:50:02.279Z,2.83
2022-08-12T10:52:38.916Z,2.83
2022-08-12T10:55:41.529Z,2.60
2022-08-12T10:58:46.940Z,2.97
2022-08-12T11:04:20.197Z,2.90
2022-08-12T11:07:08.364Z,2.80
2022-08-12T11:08:43.245Z,2.72
2022-08-12T11:12:36.832Z,3.08
2022-08-12T11:15:19.046Z,2.63
2022-08-12T11:18:25.711Z,2.78
2022-08-12T11:21:56.862Z,2.90
2022-08-12T11:24:51.040Z,3.00
2022-08-12T11:27:53.379Z,3.10
2022-08-12T11:30:55.324Z,2.78
2022-08-12T11:34:04.730Z,2.50
2022-08-12T11:37:25.863Z,3.15
2022-08-12T11:43:31.733Z,3.05
2022-08-12T11:46:54.462Z,3.05
2022-08-12T11:49:56.130Z,3.00
2022-08-12T11:52:57.925Z,2.70
2022-08-12T11:55:59.749Z,2.55
2022-08-12T12:02:23.182Z,2.60
2022-08-12T12:05:28.443Z,2.80
2022-08-12T12:08:44.025Z,2.50
2022-08-12T12:11:49.696Z,2.70
2022-08-12T12:14:54.092Z,2.70
2022-08-12T12:17:56.699Z,2.50
2022-08-12T12:21:04.015Z,2.45
2022-08-12T12:24:06.432Z,2.30
2022-08-12T12:27:08.840Z,2.55
2022-08-12T12:30:18.438Z,2.45
2022-08-12T12:33:56.997Z,2.22
2022-08-12T12:36:54.637Z,2.38
2022-08-12T12:39:58.330Z,2.50
2022-08-12T12:43:05.116Z,2.38
2022-08-12T12:46:07.247Z,2.75
2022-08-12T12:49:10.904Z,2.58
2022-08-12T12:52:19.815Z,2.60
2022-08-12T12:58:25.072Z,2.65
2022-08-12T13:01:31.788Z,2.50
2022-08-12T13:04:37.640Z,2.55
2022-08-12T13:07:54.637Z,2.45
2022-08-12T13:11:03.354Z,2.30
2022-08-12T13:14:10.406Z,2.33
2022-08-12T13:17:16.570Z,2.20
2022-08-12T13:20:37.178Z,2.40
2022-08-12T13:23:44.797Z,2.17
2022-08-12T13:26:46.512Z,2.20
2022-08-12T13:29:48.916Z,2.20
2022-08-12T13:32:57.367Z,2.47
2022-08-12T13:36:04.887Z,2.20
2022-08-12T13:39:09.607Z,1.90
2022-08-12T13:42:14.260Z,1.98
2022-08-12T13:45:16.913Z,2.20
2022-08-12T13:48:19.893Z,2.00
2022-08-12T13:51:24.370Z,1.88
2022-08-12T13:54:26.392Z,2.08
2022-08-12T13:57:46.860Z,2.20
2022-08-12T14:00:51.975Z,2.17
2022-08-12T14:03:54.680Z,2.30
2022-08-12T14:06:56.286Z,1.77
2022-08-12T14:10:16.830Z,2.17
2022-08-12T14:14:03.496Z,2.10
2022-08-12T14:16:51.315Z,1.90
2022-08-12T14:20:12.384Z,2.20
2022-08-12T14:24:01.253Z,2.10
2022-08-12T14:26:36.226Z,2.20
2022-08-12T14:30:04.512Z,1.90
2022-08-12T14:33:09.094Z,2.00
2022-08-12T14:36:20.700Z,2.05
2022-08-12T14:39:23.111Z,1.90
2022-08-12T14:42:28.226Z,2.40
2022-08-12T14:45:44.857Z,2.05
2022-08-12T14:48:53.060Z,2.30
2022-08-12T14:52:54.093Z,1.95
2022-08-12T14:58:59.984Z,2.20
2022-08-12T15:02:03.364Z,1.88
2022-08-12T15:05:06.616Z,1.95
2022-08-12T15:08:22.472Z,2.05
2022-08-12T15:11:24.376Z,1.80
2022-08-12T15:14:45.931Z,2.00
2022-08-12T15:17:47.506Z,2.30
2022-08-12T15:21:11.467Z,2.17
2022-08-12T15:24:13.292Z,2.20
2022-08-12T15:27:14.877Z,2.05
2022-08-12T15:30:26.755Z,2.27
2022-08-12T15:33:45.352Z,2.10
2022-08-12T15:36:55.083Z,2.20
2022-08-12T15:40:01.403Z,2.30
2022-08-12T15:43:04.631Z,2.28
2022-08-12T15:46:15.442Z,2.63
2022-08-12T15:49:19.045Z,2.20
2022-08-12T15:52:27.132Z,2.00
2022-08-12T15:55:33.638Z,2.13
2022-08-12T15:58:44.025Z,2.05
2022-08-12T16:01:47.967Z,1.80
2022-08-12T16:04:51.373Z,2.28
2022-08-12T16:07:53.790Z,2.45
2022-08-12T16:10:56.922Z,2.08
2022-08-12T16:13:59.963Z,2.05
2022-08-12T16:17:01.846Z,2.00
2022-08-12T16:20:06.157Z,2.20
2022-08-12T16:23:35.835Z,2.03
2022-08-12T16:26:34.931Z,2.13
2022-08-12T16:29:53.212Z,2.42
2022-08-12T16:32:57.262Z,2.10
2022-08-12T16:35:58.860Z,2.60
2022-08-12T16:39:03.507Z,2.30
2022-08-12T16:42:05.381Z,1.90
2022-08-12T16:45:09.744Z,2.53
2022-08-12T16:48:35.338Z,2.15
2022-08-12T16:51:41.767Z,2.50
2022-08-12T16:54:47.922Z,2.50
2022-08-12T16:57:50.952Z,2.03
2022-08-12T17:01:02.925Z,2.00
2022-08-12T17:04:09.067Z,2.25
2022-08-12T17:07:16.619Z,2.33
2022-08-12T17:10:36.450Z,2.40
2022-08-12T17:13:42.959Z,2.10
2022-08-12T17:16:55.765Z,2.10
2022-08-12T17:20:34.577Z,2.10
2022-08-12T17:23:33.378Z,2.20
2022-08-12T17:26:53.877Z,2.22
2022-08-12T17:30:02.374Z,2.00
2022-08-12T17:33:06.948Z,2.00
2022-08-12T17:36:10.483Z,2.35
2022-08-12T17:39:12.499Z,1.60
2022-08-12T17:42:32.626Z,2.03
2022-08-12T17:45:42.229Z,2.63
2022-08-12T17:48:54.962Z,2.50
2022-08-12T17:52:02.716Z,2.70
2022-08-12T17:55:07.211Z,2.53
2022-08-12T17:58:37.839Z,2.05
2022-08-12T18:01:44.328Z,2.10
2022-08-12T18:05:05.080Z,2.55
2022-08-12T18:08:11.684Z,2.30
2022-08-12T18:12:03.965Z,2.20
2022-08-12T18:14:58.813Z,2.30
2022-08-12T18:18:02.289Z,2.17
2022-08-12T18:21:04.167Z,2.35
2022-08-12T18:24:05.927Z,2.40
2022-08-12T18:27:29.928Z,2.85
2022-08-12T18:30:35.865Z,2.53
2022-08-12T18:33:45.902Z,2.55
2022-08-12T18:36:51.973Z,2.50
2022-08-12T18:40:18.723Z,2.50
2022-08-12T18:43:20.436Z,3.03
2022-08-12T18:46:29.226Z,3.22
2022-08-12T18:49:38.789Z,2.40
2022-08-12T18:52:48.478Z,3.00
2022-08-12T18:55:57.332Z,3.30
2022-08-12T18:59:02.802Z,3.08
2022-08-12T19:02:21.240Z,3.00
2022-08-12T19:05:53.537Z,3.10
2022-08-12T19:08:49.234Z,3.10
2022-08-12T19:12:12.595Z,2.85
2022-08-12T19:15:25.534Z,3.60
2022-08-12T19:18:31.149Z,3.13
2022-08-12T19:21:37.320Z,3.03
2022-08-12T19:24:58.072Z,2.85
2022-08-12T19:28:00.545Z,2.95
2022-08-12T19:31:57.361Z,2.97
2022-08-12T19:38:27.074Z,3.00
2022-08-12T19:41:42.523Z,3.70
2022-08-12T19:44:52.325Z,3.10
2022-08-12T19:47:55.912Z,2.90
2022-08-12T19:50:58.011Z,2.60
2022-08-12T19:54:00.480Z,3.40
2022-08-12T19:57:02.344Z,2.70
2022-08-12T20:00:07.757Z,3.10
2022-08-12T20:03:39.380Z,2.80
2022-08-12T20:06:53.446Z,3.10
2022-08-12T20:09:56.051Z,3.20
2022-08-12T20:13:18.515Z,2.90
2022-08-12T20:16:47.542Z,3.08
2022-08-12T20:20:05.647Z,2.80
2022-08-12T20:23:08.773Z,2.38
2022-08-12T20:26:11.130Z,2.78
2022-08-12T20:29:13.783Z,2.80
2022-08-12T20:32:15.423Z,3.00
2022-08-12T20:35:24.356Z,2.35
2022-08-12T20:38:27.740Z,2.67
2022-08-12T20:41:30.154Z,2.30
2022-08-12T20:44:40.521Z,2.95
2022-08-12T20:47:47.370Z,2.97
2022-08-12T20:51:04.636Z,2.83
2022-08-12T20:54:08.646Z,2.92
2022-08-12T20:57:10.663Z,3.35
2022-08-12T21:00:17.945Z,3.50
2022-08-12T21:03:52.819Z,3.20
2022-08-12T21:07:09.681Z,3.35
2022-08-12T21:10:12.321Z,2.85
2022-08-12T21:13:20.528Z,2.75
2022-08-12T21:16:35.574Z,3.40
2022-08-12T21:19:52.731Z,3.45
2022-08-12T21:22:56.067Z,3.05
2022-08-12T21:26:01.386Z,3.28
2022-08-12T21:29:12.353Z,3.22
2022-08-12T21:32:36.385Z,3.28
2022-08-12T21:35:40.016Z,3.22
2022-08-12T21:38:43.140Z,3.30
2022-08-12T21:41:50.368Z,2.92
2022-08-12T21:45:47.692Z,3.05
2022-08-12T21:48:22.368Z,3.20
2022-08-12T21:51:24.116Z,3.20
2022-08-12T21:54:45.812Z,3.10
2022-08-12T21:57:54.123Z,3.70
2022-08-12T22:01:05.308Z,3.45
2022-08-12T22:04:30.523Z,3.25
2022-08-12T22:07:46.300Z,3.30
2022-08-12T22:10:56.170Z,3.17
2022-08-12T22:14:02.165Z,3.60
2022-08-12T22:17:10.876Z,3.80
2022-08-12T22:20:16.860Z,3.40
2022-08-12T22:23:21.709Z,3.50
2022-08-12T22:26:37.514Z,3.33
2022-08-12T22:30:00.937Z,3.17
2022-08-12T22:33:08.000Z,3.13
2022-08-12T22:36:24.261Z,3.13
2022-08-12T22:39:31.692Z,2.95
2022-08-12T22:42:52.030Z,3.33
2022-08-12T22:46:30.302Z,2.90
2022-08-12T22:49:37.101Z,2.78
2022-08-12T22:52:51.482Z,2.75
2022-08-12T22:55:59.796Z,3.17
2022-08-12T22:59:08.240Z,2.50
2022-08-12T23:02:11.379Z,2.72
2022-08-12T23:05:13.092Z,2.83
2022-08-12T23:08:17.873Z,2.70
2022-08-12T23:11:23.661Z,2.65
2022-08-12T23:14:28.909Z,2.65
2022-08-12T23:17:40.592Z,2.50
2022-08-12T23:20:43.104Z,2.58
2022-08-12T23:23:57.771Z,2.17
2022-08-12T23:27:43.976Z,1.90
2022-08-12T23:30:46.600Z,2.30
2022-08-12T23:34:00.819Z,2.20
2022-08-12T23:37:06.209Z,2.30
2022-08-12T23:40:15.301Z,2.05
2022-08-12T23:43:19.812Z,2.22
2022-08-12T23:46:25.813Z,2.45
2022-08-12T23:49:58.411Z,2.05
2022-08-12T23:52:51.655Z,2.10
2022-08-12T23:55:56.869Z,2.08
2022-08-12T23:59:00.254Z,2.10
